createdAt,value
2023-05-31T00:10:03.229Z,3.07
2023-05-31T00:25:06.973Z,3.50
2023-05-31T00:40:10.906Z,3.87
2023-05-31T00:55:14.387Z,3.13
2023-05-31T01:10:17.509Z,3.57
2023-05-31T01:25:35.026Z,2.77
2023-05-31T01:40:38.531Z,2.90
2023-05-31T01:55:42.746Z,3.80
2023-05-31T02:10:45.910Z,4.10
2023-05-31T02:25:50.791Z,5.33
2023-05-31T02:40:54.049Z,3.87
2023-05-31T02:55:57.280Z,4.43
2023-05-31T03:11:00.602Z,4.27
2023-05-31T03:26:04.206Z,5.30
2023-05-31T03:41:07.471Z,3.83
2023-05-31T03:56:12.615Z,4.30
2023-05-31T04:11:17.065Z,3.67
2023-05-31T04:26:20.297Z,4.47
2023-05-31T04:41:25.382Z,3.70
2023-05-31T04:56:28.630Z,3.97
2023-05-31T05:11:31.922Z,3.50
2023-05-31T05:26:35.666Z,3.63
2023-05-31T05:41:40.112Z,3.10
2023-05-31T05:56:43.405Z,3.00
2023-05-31T06:11:48.346Z,2.67
2023-05-31T06:26:51.503Z,3.00
2023-05-31T06:41:58.343Z,3.13
2023-05-31T06:57:23.643Z,2.80
2023-05-31T07:12:26.885Z,3.23
2023-05-31T07:27:30.235Z,2.80
2023-05-31T07:42:33.356Z,2.90
2023-05-31T07:57:36.499Z,2.53
2023-05-31T08:12:40.018Z,2.40
2023-05-31T08:27:42.982Z,2.37
2023-05-31T08:42:49.936Z,2.80
2023-05-31T08:57:53.278Z,2.70
2023-05-31T09:12:56.359Z,3.00
2023-05-31T09:28:00.285Z,2.13
2023-05-31T09:43:03.339Z,2.50
2023-05-31T09:58:06.440Z,2.80
2023-05-31T10:13:11.512Z,2.00
2023-05-31T10:28:15.508Z,2.37
2023-05-31T10:43:35.327Z,2.20
2023-05-31T10:58:39.488Z,2.43
2023-05-31T11:13:57.908Z,2.00
2023-05-31T11:29:02.586Z,1.50
2023-05-31T11:44:11.625Z,1.80
2023-05-31T11:59:15.606Z,2.47
2023-05-31T12:14:18.651Z,2.10
2023-05-31T12:29:26.944Z,2.07
2023-05-31T12:44:30.598Z,1.50
2023-05-31T12:59:34.210Z,1.90
2023-05-31T13:14:37.264Z,1.30
2023-05-31T13:29:40.507Z,1.70
2023-05-31T13:44:44.029Z,1.80
2023-05-31T13:59:47.161Z,2.00
2023-05-31T14:14:50.216Z,1.53
2023-05-31T14:29:53.488Z,1.87
2023-05-31T14:44:56.590Z,2.30
2023-05-31T14:59:59.648Z,1.93
2023-05-31T15:15:02.848Z,2.27
2023-05-31T15:30:07.599Z,2.30
2023-05-31T15:45:11.265Z,1.83
2023-05-31T16:00:15.355Z,3.10
2023-05-31T16:15:18.480Z,1.93
2023-05-31T16:30:21.570Z,2.20
2023-05-31T16:45:24.653Z,2.20
2023-05-31T17:00:27.785Z,2.03
2023-05-31T17:15:30.945Z,2.40
2023-05-31T17:30:33.985Z,2.50
2023-05-31T17:45:37.133Z,2.77
2023-05-31T18:00:40.278Z,2.10
2023-05-31T18:15:43.440Z,2.73
2023-05-31T18:30:46.605Z,2.17
2023-05-31T18:45:49.747Z,2.53
2023-05-31T19:00:53.024Z,1.93
2023-05-31T19:15:56.237Z,1.77
2023-05-31T19:30:59.571Z,2.50
2023-05-31T19:46:02.923Z,1.97
2023-05-31T20:01:06.220Z,2.30
2023-05-31T20:16:09.347Z,2.80
2023-05-31T20:31:12.585Z,2.20
2023-05-31T20:46:16.053Z,3.07
2023-05-31T21:01:19.268Z,2.77
2023-05-31T21:16:23.937Z,2.40
2023-05-31T21:31:27.139Z,2.60
2023-05-31T21:46:30.264Z,2.40
2023-05-31T22:01:33.417Z,2.67
2023-05-31T22:16:36.654Z,2.47
2023-05-31T22:31:40.145Z,2.70
2023-05-31T22:46:43.307Z,2.70
2023-05-31T23:01:47.801Z,2.47
2023-05-31T23:16:51.017Z,2.40
2023-05-31T23:31:54.164Z,2.40
2023-05-31T23:46:57.236Z,2.93
